createdAt,value
2024-01-20T00:00:14.458Z,102484.94
2024-01-20T00:02:41.252Z,102483.72
2024-01-20T00:05:08.497Z,102482.94
2024-01-20T00:07:35.508Z,102498.19
2024-01-20T00:10:02.458Z,102497.75
2024-01-20T00:12:31.547Z,102495.34
2024-01-20T00:14:58.145Z,102494.94
2024-01-20T00:17:27.436Z,102494.50
2024-01-20T00:19:56.052Z,102492.41
2024-01-20T00:22:23.813Z,102492.41
2024-01-20T00:24:50.816Z,102491.19
2024-01-20T00:27:17.839Z,102498.66
2024-01-20T00:29:45.401Z,102495.81
2024-01-20T00:32:12.714Z,102489.88
2024-01-20T00:34:51.299Z,102502.03
2024-01-20T00:37:25.768Z,102505.13
2024-01-20T00:39:52.260Z,102495.66
2024-01-20T00:42:18.792Z,102494.06
2024-01-20T00:44:45.354Z,102497.19
2024-01-20T00:47:12.111Z,102505.44
2024-01-20T00:49:38.812Z,102499.47
2024-01-20T00:52:05.788Z,102497.44
2024-01-20T00:54:32.355Z,102491.94
2024-01-20T00:56:58.822Z,102486.81
2024-01-20T00:59:25.283Z,102481.22
2024-01-20T01:01:51.996Z,102487.53
2024-01-20T01:04:18.537Z,102485.50
2024-01-20T01:06:45.132Z,102491.34
2024-01-20T01:09:11.676Z,102487.81
2024-01-20T01:11:38.246Z,102481.88
2024-01-20T01:14:04.776Z,102486.59
2024-01-20T01:16:31.396Z,102490.03
2024-01-20T01:18:57.998Z,102493.13
2024-01-20T01:21:24.622Z,102503.34
2024-01-20T01:23:51.148Z,102506.06
2024-01-20T01:26:18.528Z,102501.31
2024-01-20T01:28:45.193Z,102498.56
2024-01-20T01:31:11.754Z,102498.91
2024-01-20T01:33:39.157Z,102507.50
2024-01-20T01:36:06.263Z,102504.31
2024-01-20T01:38:32.818Z,102516.09
2024-01-20T01:40:59.537Z,102521.16
2024-01-20T01:43:26.638Z,102515.22
2024-01-20T01:45:53.393Z,102518.34
2024-01-20T01:48:20.424Z,102521.41
2024-01-20T01:50:47.161Z,102518.22
2024-01-20T01:53:14.956Z,102515.47
2024-01-20T01:55:41.982Z,102522.94
2024-01-20T01:58:08.585Z,102533.47
2024-01-20T02:00:35.394Z,102518.50
2024-01-20T02:03:02.891Z,102534.53
2024-01-20T02:05:29.628Z,102527.09
2024-01-20T02:07:58.834Z,102530.19
2024-01-20T02:10:25.469Z,102531.34
2024-01-20T02:12:52.355Z,102525.41
2024-01-20T02:15:19.164Z,102523.81
2024-01-20T02:17:56.246Z,102521.44
2024-01-20T02:20:24.273Z,102518.22
2024-01-20T02:22:50.868Z,102511.13
2024-01-20T02:25:17.421Z,102513.09
2024-01-20T02:27:43.886Z,102510.28
2024-01-20T02:30:10.778Z,102514.97
2024-01-20T02:32:37.416Z,102525.16
2024-01-20T02:35:04.797Z,102530.63
2024-01-20T02:37:31.416Z,102530.16
2024-01-20T02:39:58.704Z,102538.41
2024-01-20T02:42:25.833Z,102540.34
2024-01-20T02:44:52.492Z,102537.19
2024-01-20T02:47:19.607Z,102540.28
2024-01-20T02:49:46.325Z,102535.16
2024-01-20T02:52:13.028Z,102546.47
2024-01-20T02:54:39.558Z,102538.56
2024-01-20T02:57:06.470Z,102536.97
2024-01-20T02:59:32.974Z,102542.47
2024-01-20T03:02:00.537Z,102534.59
2024-01-20T03:04:27.093Z,102547.53
2024-01-20T03:06:53.608Z,102546.28
2024-01-20T03:09:20.312Z,102543.53
2024-01-20T03:11:46.877Z,102549.03
2024-01-20T03:14:13.476Z,102541.44
2024-01-20T03:16:40.489Z,102547.28
2024-01-20T03:19:07.682Z,102544.91
2024-01-20T03:21:35.325Z,102546.06
2024-01-20T03:24:02.195Z,102542.09
2024-01-20T03:26:28.965Z,102554.66
2024-01-20T03:28:55.618Z,102562.88
2024-01-20T03:31:22.213Z,102550.31
2024-01-20T03:33:48.822Z,102560.50
2024-01-20T03:36:15.461Z,102566.66
2024-01-20T03:38:42.003Z,102555.69
2024-01-20T03:41:08.581Z,102556.03
2024-01-20T03:43:35.083Z,102566.22
2024-01-20T03:46:01.733Z,102566.22
2024-01-20T03:48:28.569Z,102565.00
2024-01-20T03:50:55.282Z,102560.66
2024-01-20T03:53:21.756Z,102557.91
2024-01-20T03:55:48.248Z,102559.38
2024-01-20T03:58:14.851Z,102566.81
2024-01-20T04:00:41.393Z,102572.31
2024-01-20T04:03:07.993Z,102567.16
2024-01-20T04:05:34.498Z,102568.31
2024-01-20T04:08:00.943Z,102563.19
2024-01-20T04:10:27.460Z,102573.00
2024-01-20T04:12:54.049Z,102578.84
2024-01-20T04:15:20.607Z,102561.59
2024-01-20T04:17:47.258Z,102570.50
2024-01-20T04:20:13.924Z,102580.34
2024-01-20T04:22:40.513Z,102585.38
2024-01-20T04:25:07.707Z,102576.78
2024-01-20T04:27:41.222Z,102582.28
2024-01-20T04:30:09.646Z,102577.94
2024-01-20T04:32:36.309Z,102585.03
2024-01-20T04:35:04.364Z,102578.41
2024-01-20T04:37:31.008Z,102577.94
2024-01-20T04:39:57.550Z,102585.38
2024-01-20T04:42:24.059Z,102591.34
2024-01-20T04:44:50.596Z,102587.44
2024-01-20T04:47:17.104Z,102586.16
2024-01-20T04:49:43.719Z,102580.00
2024-01-20T04:52:10.267Z,102578.41
2024-01-20T04:54:36.818Z,102582.75
2024-01-20T04:57:03.491Z,102580.81
2024-01-20T04:59:30.013Z,102590.28
2024-01-20T05:01:56.515Z,102593.38
2024-01-20T05:04:23.056Z,102584.00
2024-01-20T05:06:49.969Z,102600.09
2024-01-20T05:09:16.654Z,102603.63
2024-01-20T05:11:43.232Z,102606.03
2024-01-20T05:14:10.238Z,102604.91
2024-01-20T05:16:36.760Z,102607.28
2024-01-20T05:19:03.681Z,102607.75
2024-01-20T05:21:30.464Z,102606.59
2024-01-20T05:23:58.420Z,102613.31
2024-01-20T05:26:25.165Z,102611.84
2024-01-20T05:28:51.876Z,102625.22
2024-01-20T05:31:18.638Z,102626.00
2024-01-20T05:33:45.460Z,102621.75
2024-01-20T05:36:15.555Z,102617.50
2024-01-20T05:38:42.189Z,102617.97
2024-01-20T05:41:10.128Z,102619.25
2024-01-20T05:43:37.540Z,102624.03
2024-01-20T05:46:08.134Z,102616.59
2024-01-20T05:48:36.432Z,102625.28
2024-01-20T05:51:03.570Z,102619.44
2024-01-20T05:53:30.538Z,102618.72
2024-01-20T05:55:57.055Z,102618.38
2024-01-20T05:58:23.549Z,102613.69
2024-01-20T06:00:50.666Z,102623.19
2024-01-20T06:03:17.267Z,102623.63
2024-01-20T06:05:43.889Z,102624.84
2024-01-20T06:08:10.494Z,102634.69
2024-01-20T06:10:37.049Z,102638.69
2024-01-20T06:13:03.741Z,102634.81
2024-01-20T06:15:30.268Z,102637.56
2024-01-20T06:17:56.848Z,102637.56
2024-01-20T06:20:23.440Z,102642.69
2024-01-20T06:22:50.021Z,102644.28
2024-01-20T06:25:16.520Z,102645.88
2024-01-20T06:27:43.360Z,102647.09
2024-01-20T06:30:10.424Z,102650.66
2024-01-20T06:32:37.059Z,102653.06
2024-01-20T06:35:04.063Z,102641.28
2024-01-20T06:37:30.585Z,102644.47
2024-01-20T06:39:57.105Z,102648.81
2024-01-20T06:42:23.765Z,102653.16
2024-01-20T06:44:50.330Z,102639.41
2024-01-20T06:47:16.873Z,102639.41
2024-01-20T06:49:43.517Z,102641.38
2024-01-20T06:52:10.909Z,102639.06
2024-01-20T06:54:39.361Z,102645.34
2024-01-20T06:57:05.893Z,102649.69
2024-01-20T06:59:32.469Z,102655.19
2024-01-20T07:01:58.955Z,102657.59
2024-01-20T07:04:25.710Z,102656.44
2024-01-20T07:06:52.301Z,102655.66
2024-01-20T07:09:18.937Z,102655.28
2024-01-20T07:11:45.439Z,102654.16
2024-01-20T07:14:11.952Z,102660.06
2024-01-20T07:16:38.501Z,102651.03
2024-01-20T07:19:05.195Z,102654.59
2024-01-20T07:21:31.869Z,102660.88
2024-01-20T07:23:58.463Z,102661.66
2024-01-20T07:26:25.004Z,102665.22
2024-01-20T07:28:51.542Z,102668.75
2024-01-20T07:31:18.086Z,102668.75
2024-01-20T07:33:45.078Z,102659.72
2024-01-20T07:36:12.223Z,102662.47
2024-01-20T07:38:38.790Z,102665.22
2024-01-20T07:41:05.449Z,102668.69
2024-01-20T07:43:31.964Z,102668.69
2024-01-20T07:45:58.477Z,102685.16
2024-01-20T07:48:27.067Z,102687.53
2024-01-20T07:50:54.402Z,102689.94
2024-01-20T07:53:21.035Z,102676.63
2024-01-20T07:55:47.566Z,102684.09
2024-01-20T07:58:14.065Z,102682.59
2024-01-20T08:00:40.799Z,102688.88
2024-01-20T08:03:07.361Z,102690.50
2024-01-20T08:05:35.668Z,102697.56
2024-01-20T08:08:02.620Z,102692.88
2024-01-20T08:10:29.135Z,102693.31
2024-01-20T08:12:56.635Z,102696.06
2024-01-20T08:15:24.574Z,102694.47
2024-01-20T08:17:51.257Z,102699.16
2024-01-20T08:20:17.824Z,102695.63
2024-01-20T08:22:44.339Z,102689.34
2024-01-20T08:25:10.973Z,102702.72
2024-01-20T08:27:37.626Z,102697.56
2024-01-20T08:30:04.692Z,102707.75
2024-01-20T08:32:31.405Z,102714.41
2024-01-20T08:34:58.091Z,102713.97
2024-01-20T08:37:24.568Z,102712.03
2024-01-20T08:39:51.062Z,102712.81
2024-01-20T08:42:17.587Z,102711.22
2024-01-20T08:44:44.384Z,102711.66
2024-01-20T08:47:10.885Z,102710.06
2024-01-20T08:49:37.393Z,102716.00
2024-01-20T08:52:04.153Z,102730.53
2024-01-20T08:54:30.678Z,102725.75
2024-01-20T08:56:57.212Z,102728.16
2024-01-20T08:59:23.810Z,102730.91
2024-01-20T09:01:50.338Z,102734.31
2024-01-20T09:04:16.823Z,102728.03
2024-01-20T09:06:43.456Z,102736.28
2024-01-20T09:09:10.098Z,102738.22
2024-01-20T09:11:36.675Z,102744.63
2024-01-20T09:14:03.725Z,102739.34
2024-01-20T09:16:30.437Z,102746.88
2024-01-20T09:18:57.157Z,102762.41
2024-01-20T09:21:24.029Z,102748.38
2024-01-20T09:23:51.934Z,102744.66
2024-01-20T09:26:18.500Z,102746.47
2024-01-20T09:28:45.113Z,102751.47
2024-01-20T09:31:11.628Z,102757.50
2024-01-20T09:33:38.372Z,102757.25
2024-01-20T09:36:05.387Z,102764.78
2024-01-20T09:38:31.947Z,102766.00
2024-01-20T09:40:59.437Z,102764.16
2024-01-20T09:43:30.851Z,102768.59
2024-01-20T09:45:58.954Z,102775.50
2024-01-20T09:48:25.938Z,102778.78
2024-01-20T09:50:52.508Z,102774.16
2024-01-20T09:53:19.221Z,102768.03
2024-01-20T09:55:47.055Z,102775.75
2024-01-20T09:58:15.255Z,102769.19
2024-01-20T10:00:42.338Z,102772.91
2024-01-20T10:03:10.738Z,102773.75
2024-01-20T10:05:38.477Z,102774.75
2024-01-20T10:08:08.714Z,102778.41
2024-01-20T10:10:35.389Z,102789.03
2024-01-20T10:13:02.268Z,102783.59
2024-01-20T10:15:34.041Z,102780.50
2024-01-20T10:18:07.822Z,102786.53
2024-01-20T10:20:37.125Z,102780.66
2024-01-20T10:23:06.401Z,102786.16
2024-01-20T10:25:33.169Z,102785.00
2024-01-20T10:28:00.169Z,102807.81
2024-01-20T10:30:27.303Z,102796.00
2024-01-20T10:33:04.352Z,102804.69
2024-01-20T10:35:36.102Z,102801.63
2024-01-20T10:38:07.603Z,102798.06
2024-01-20T10:40:39.932Z,102800.44
2024-01-20T10:43:15.270Z,102800.88
2024-01-20T10:46:10.014Z,102792.97
2024-01-20T10:48:38.560Z,102800.09
2024-01-20T10:51:14.177Z,102792.63
2024-01-20T10:53:41.204Z,102792.25
2024-01-20T10:56:08.734Z,102788.69
2024-01-20T10:58:44.471Z,102786.75
2024-01-20T11:01:12.814Z,102789.13
2024-01-20T11:03:40.164Z,102783.63
2024-01-20T11:06:06.878Z,102775.38
2024-01-20T11:08:33.510Z,102783.63
2024-01-20T11:11:00.937Z,102783.25
2024-01-20T11:13:28.029Z,102776.16
2024-01-20T11:15:56.077Z,102783.63
2024-01-20T11:18:24.370Z,102785.59
2024-01-20T11:20:57.604Z,102779.72
2024-01-20T11:23:25.474Z,102782.03
2024-01-20T11:25:52.168Z,102775.72
2024-01-20T11:28:26.393Z,102781.59
2024-01-20T11:30:53.189Z,102772.53
2024-01-20T11:33:20.273Z,102773.72
2024-01-20T11:35:46.877Z,102768.19
2024-01-20T11:38:15.628Z,102772.91
2024-01-20T11:40:42.201Z,102763.06
2024-01-20T11:43:11.967Z,102760.31
2024-01-20T11:45:41.951Z,102756.75
2024-01-20T11:48:12.794Z,102754.00
2024-01-20T11:50:41.788Z,102746.06
2024-01-20T11:53:08.405Z,102761.00
2024-01-20T11:55:34.934Z,102749.56
2024-01-20T11:58:02.146Z,102741.31
2024-01-20T12:00:28.850Z,102736.88
2024-01-20T12:02:56.032Z,102731.38
2024-01-20T12:05:22.801Z,102735.63
2024-01-20T12:07:49.483Z,102737.59
2024-01-20T12:10:17.319Z,102717.88
2024-01-20T12:12:44.849Z,102718.69
2024-01-20T12:15:11.715Z,102720.22
2024-01-20T12:17:38.380Z,102713.91
2024-01-20T12:20:06.179Z,102714.25
2024-01-20T12:22:33.380Z,102715.41
2024-01-20T12:25:00.443Z,102708.69
2024-01-20T12:27:27.525Z,102711.78
2024-01-20T12:29:54.256Z,102714.19
2024-01-20T12:32:20.810Z,102718.44
2024-01-20T12:34:47.449Z,102706.63
2024-01-20T12:37:13.980Z,102707.78
2024-01-20T12:39:40.558Z,102707.00
2024-01-20T12:42:07.264Z,102703.44
2024-01-20T12:44:33.796Z,102704.56
2024-01-20T12:47:00.310Z,102693.94
2024-01-20T12:49:27.113Z,102699.00
2024-01-20T12:51:53.882Z,102691.47
2024-01-20T12:54:20.533Z,102688.72
2024-01-20T12:56:47.507Z,102683.56
2024-01-20T12:59:14.105Z,102683.13
2024-01-20T13:01:40.808Z,102671.31
2024-01-20T13:04:07.400Z,102669.31
2024-01-20T13:06:34.147Z,102666.13
2024-01-20T13:09:00.869Z,102668.09
2024-01-20T13:11:29.380Z,102660.53
2024-01-20T13:13:57.348Z,102669.16
2024-01-20T13:16:23.982Z,102668.34
2024-01-20T13:18:53.258Z,102664.38
2024-01-20T13:21:20.340Z,102667.50
2024-01-20T13:23:47.690Z,102666.66
2024-01-20T13:26:14.181Z,102671.72
2024-01-20T13:28:40.684Z,102665.44
2024-01-20T13:31:07.407Z,102663.06
2024-01-20T13:33:34.056Z,102665.00
2024-01-20T13:36:00.810Z,102662.25
2024-01-20T13:38:27.433Z,102655.59
2024-01-20T13:40:53.968Z,102654.38
2024-01-20T13:43:20.474Z,102652.78
2024-01-20T13:45:47.747Z,102661.03
2024-01-20T13:48:14.503Z,102659.06
2024-01-20T13:50:41.181Z,102651.19
2024-01-20T13:53:08.253Z,102663.69
2024-01-20T13:55:34.765Z,102653.03
2024-01-20T13:58:01.312Z,102661.66
2024-01-20T14:00:27.865Z,102663.19
2024-01-20T14:02:54.489Z,102655.25
2024-01-20T14:05:21.058Z,102662.72
2024-01-20T14:07:47.592Z,102661.13
2024-01-20T14:10:14.347Z,102663.09
2024-01-20T14:12:40.927Z,102668.59
2024-01-20T14:15:07.884Z,102657.16
2024-01-20T14:17:34.599Z,102670.53
2024-01-20T14:20:01.335Z,102661.50
2024-01-20T14:22:28.014Z,102648.47
2024-01-20T14:24:54.525Z,102649.25
2024-01-20T14:27:21.105Z,102656.72
2024-01-20T14:29:47.653Z,102651.91
2024-01-20T14:32:14.179Z,102648.38
2024-01-20T14:34:40.722Z,102641.28
2024-01-20T14:37:08.691Z,102647.50
2024-01-20T14:39:35.597Z,102648.66
2024-01-20T14:42:02.887Z,102653.72
2024-01-20T14:44:29.560Z,102660.34
2024-01-20T14:46:56.072Z,102651.66
2024-01-20T14:49:23.189Z,102648.06
2024-01-20T14:51:49.820Z,102656.66
2024-01-20T14:54:16.384Z,102657.78
2024-01-20T14:56:42.874Z,102662.06
2024-01-20T14:59:09.859Z,102672.63
2024-01-20T15:01:37.647Z,102669.88
2024-01-20T15:04:05.861Z,102660.41
2024-01-20T15:06:32.981Z,102668.19
2024-01-20T15:09:00.202Z,102670.13
2024-01-20T15:11:27.159Z,102665.34
2024-01-20T15:13:53.708Z,102672.44
2024-01-20T15:16:20.288Z,102671.22
2024-01-20T15:18:46.976Z,102669.97
2024-01-20T15:21:13.612Z,102671.09
2024-01-20T15:23:40.147Z,102671.00
2024-01-20T15:26:06.614Z,102674.91
2024-01-20T15:28:33.144Z,102673.75
2024-01-20T15:30:59.696Z,102662.75
2024-01-20T15:33:26.430Z,102668.63
2024-01-20T15:35:53.046Z,102662.75
2024-01-20T15:38:19.739Z,102670.22
2024-01-20T15:40:46.399Z,102664.28
2024-01-20T15:43:12.960Z,102657.19
2024-01-20T15:45:39.553Z,102661.53
2024-01-20T15:48:06.417Z,102663.13
2024-01-20T15:50:33.575Z,102661.97
2024-01-20T15:53:00.049Z,102654.50
2024-01-20T15:55:26.547Z,102659.28
2024-01-20T15:57:53.121Z,102660.88
2024-01-20T16:00:19.842Z,102663.78
2024-01-20T16:02:46.634Z,102662.19
2024-01-20T16:05:13.343Z,102661.81
2024-01-20T16:07:39.850Z,102656.75
2024-01-20T16:10:07.044Z,102664.56
2024-01-20T16:12:33.676Z,102665.78
2024-01-20T16:15:00.718Z,102665.00
2024-01-20T16:17:27.613Z,102661.09
2024-01-20T16:19:54.202Z,102658.34
2024-01-20T16:22:20.709Z,102658.81
2024-01-20T16:24:47.774Z,102658.81
2024-01-20T16:27:14.406Z,102664.31
2024-01-20T16:29:40.953Z,102665.09
2024-01-20T16:32:10.554Z,102656.06
2024-01-20T16:34:37.226Z,102666.69
2024-01-20T16:37:05.197Z,102667.50
2024-01-20T16:39:32.009Z,102662.00
2024-01-20T16:41:58.650Z,102675.38
2024-01-20T16:44:26.903Z,102674.59
2024-01-20T16:46:54.127Z,102673.78
2024-01-20T16:49:21.495Z,102673.78
2024-01-20T16:51:49.105Z,102667.84
2024-01-20T16:54:15.937Z,102666.22
2024-01-20T16:56:42.637Z,102665.91
2024-01-20T16:59:09.976Z,102663.94
2024-01-20T17:01:37.938Z,102668.28
2024-01-20T17:04:04.857Z,102663.16
2024-01-20T17:06:31.831Z,102651.34
2024-01-20T17:08:58.448Z,102654.09
2024-01-20T17:11:24.996Z,102653.75
2024-01-20T17:13:54.831Z,102639.56
2024-01-20T17:16:21.378Z,102642.75
2024-01-20T17:21:18.509Z,102648.59
2024-01-20T17:23:45.297Z,102646.19
2024-01-20T17:26:12.071Z,102643.44
2024-01-20T17:28:38.686Z,102645.06
2024-01-20T17:31:05.846Z,102645.06
2024-01-20T17:33:32.704Z,102641.06
2024-01-20T17:35:59.376Z,102634.06
2024-01-20T17:38:26.149Z,102632.91
2024-01-20T17:40:52.732Z,102634.94
2024-01-20T17:43:19.240Z,102634.22
2024-01-20T17:45:49.838Z,102631.56
2024-01-20T17:48:16.588Z,102631.72
2024-01-20T17:50:43.257Z,102629.41
2024-01-20T17:53:09.817Z,102629.91
2024-01-20T17:55:36.398Z,102630.81
2024-01-20T17:58:03.008Z,102629.28
2024-01-20T18:00:29.898Z,102641.88
2024-01-20T18:02:56.590Z,102628.22
2024-01-20T18:05:23.601Z,102633.78
2024-01-20T18:07:51.185Z,102631.09
2024-01-20T18:10:21.011Z,102626.84
2024-01-20T18:12:48.132Z,102625.75
2024-01-20T18:15:15.112Z,102630.91
2024-01-20T18:17:42.832Z,102629.81
2024-01-20T18:20:09.498Z,102632.63
2024-01-20T18:22:36.150Z,102638.66
2024-01-20T18:25:02.809Z,102634.84
2024-01-20T18:27:29.488Z,102623.53
2024-01-20T18:29:57.059Z,102623.63
2024-01-20T18:32:25.082Z,102630.00
2024-01-20T18:34:51.873Z,102628.91
2024-01-20T18:37:18.450Z,102635.34
2024-01-20T18:39:45.166Z,102637.03
2024-01-20T18:42:11.831Z,102640.28
2024-01-20T18:44:38.502Z,102632.50
2024-01-20T18:47:07.118Z,102638.91
2024-01-20T18:49:34.022Z,102627.94
2024-01-20T18:52:01.669Z,102632.72
2024-01-20T18:54:28.440Z,102637.13
2024-01-20T18:56:55.037Z,102629.28
2024-01-20T18:59:21.537Z,102632.84
2024-01-20T19:01:48.144Z,102628.13
2024-01-20T19:04:14.685Z,102632.94
2024-01-20T19:06:41.440Z,102620.75
2024-01-20T19:09:08.115Z,102615.66
2024-01-20T19:11:35.283Z,102620.00
2024-01-20T19:14:01.874Z,102610.19
2024-01-20T19:16:29.531Z,102615.00
2024-01-20T19:18:56.341Z,102623.69
2024-01-20T19:21:23.077Z,102623.31
2024-01-20T19:23:49.762Z,102613.03
2024-01-20T19:26:16.363Z,102617.28
2024-01-20T19:28:42.996Z,102612.66
2024-01-20T19:31:10.070Z,102609.16
2024-01-20T19:33:37.373Z,102599.72
2024-01-20T19:36:04.107Z,102593.78
2024-01-20T19:38:30.646Z,102594.22
2024-01-20T19:40:58.207Z,102583.63
2024-01-20T19:43:24.694Z,102575.38
2024-01-20T19:45:51.707Z,102574.56
2024-01-20T19:48:18.574Z,102579.34
2024-01-20T19:50:46.918Z,102572.25
2024-01-20T19:53:13.446Z,102566.72
2024-01-20T19:55:41.305Z,102568.31
2024-01-20T19:58:08.257Z,102577.41
2024-01-20T20:00:34.867Z,102578.66
2024-01-20T20:03:01.576Z,102564.13
2024-01-20T20:05:28.294Z,102571.28
2024-01-20T20:07:54.861Z,102559.56
2024-01-20T20:10:21.647Z,102560.47
2024-01-20T20:12:48.614Z,102554.19
2024-01-20T20:15:15.229Z,102542.50
2024-01-20T20:17:41.804Z,102541.81
2024-01-20T20:20:08.929Z,102537.13
2024-01-20T20:22:35.445Z,102527.28
2024-01-20T20:25:01.985Z,102530.84
2024-01-20T20:27:28.603Z,102521.84
2024-01-20T20:29:55.153Z,102511.59
2024-01-20T20:32:22.595Z,102504.13
2024-01-20T20:34:51.076Z,102504.13
2024-01-20T20:37:19.893Z,102505.31
2024-01-20T20:39:46.749Z,102513.59
2024-01-20T20:42:13.466Z,102517.16
2024-01-20T20:44:40.013Z,102509.28
2024-01-20T20:47:06.627Z,102497.84
2024-01-20T20:49:33.178Z,102504.53
2024-01-20T20:51:59.813Z,102500.19
2024-01-20T20:54:26.482Z,102507.25
2024-01-20T20:56:53.122Z,102507.97
2024-01-20T20:59:19.791Z,102507.19
2024-01-20T21:01:46.314Z,102493.78
2024-01-20T21:04:12.909Z,102498.09
2024-01-20T21:06:40.361Z,102497.59
2024-01-20T21:09:09.095Z,102492.84
2024-01-20T21:11:35.729Z,102490.81
2024-01-20T21:14:02.341Z,102477.78
2024-01-20T21:16:29.478Z,102477.38
2024-01-20T21:18:57.704Z,102468.25
2024-01-20T21:21:24.845Z,102457.59
2024-01-20T21:23:51.587Z,102456.78
2024-01-20T21:26:24.312Z,102456.31
2024-01-20T21:28:51.087Z,102448.78
2024-01-20T21:31:17.681Z,102440.91
2024-01-20T21:33:45.036Z,102446.03
2024-01-20T21:36:12.366Z,102459.78
2024-01-20T21:38:39.780Z,102451.09
2024-01-20T21:41:06.991Z,102445.13
2024-01-20T21:43:34.249Z,102438.41
2024-01-20T21:46:00.777Z,102441.47
2024-01-20T21:48:27.433Z,102433.97
2024-01-20T21:50:55.774Z,102429.22
2024-01-20T21:53:23.814Z,102428.34
2024-01-20T21:55:50.314Z,102424.75
2024-01-20T21:58:17.209Z,102423.16
2024-01-20T22:00:43.935Z,102433.78
2024-01-20T22:03:10.883Z,102434.50
2024-01-20T22:05:38.791Z,102425.41
2024-01-20T22:08:05.601Z,102425.69
2024-01-20T22:10:33.369Z,102425.66
2024-01-20T22:12:59.986Z,102420.06
2024-01-20T22:15:26.633Z,102410.59
2024-01-20T22:17:53.474Z,102414.09
2024-01-20T22:20:20.127Z,102408.91
2024-01-20T22:22:46.714Z,102393.56
2024-01-20T22:25:14.335Z,102385.25
2024-01-20T22:27:40.908Z,102380.84
2024-01-20T22:30:10.429Z,102383.97
2024-01-20T22:32:40.705Z,102380.34
2024-01-20T22:35:07.683Z,102370.44
2024-01-20T22:37:34.340Z,102371.16
2024-01-20T22:40:03.221Z,102372.69
2024-01-20T22:42:29.881Z,102365.97
2024-01-20T22:44:56.486Z,102358.81
2024-01-20T22:47:23.502Z,102353.25
2024-01-20T22:49:50.772Z,102347.69
2024-01-20T22:52:17.439Z,102333.88
2024-01-20T22:54:45.170Z,102327.94
2024-01-20T22:57:12.097Z,102328.69
2024-01-20T22:59:38.676Z,102327.44
2024-01-20T23:02:05.819Z,102313.66
2024-01-20T23:04:32.622Z,102322.66
2024-01-20T23:06:59.701Z,102318.66
2024-01-20T23:09:27.516Z,102322.16
2024-01-20T23:11:54.766Z,102315.44
2024-01-20T23:14:22.084Z,102314.94
2024-01-20T23:16:48.909Z,102329.84
2024-01-20T23:19:15.481Z,102310.97
2024-01-20T23:21:42.118Z,102302.28
2024-01-20T23:24:08.698Z,102299.47
2024-01-20T23:26:36.071Z,102295.50
2024-01-20T23:29:02.606Z,102284.44
2024-01-20T23:31:29.108Z,102281.25
2024-01-20T23:33:55.729Z,102279.25
2024-01-20T23:36:22.297Z,102275.28
2024-01-20T23:38:48.869Z,102285.50
2024-01-20T23:41:15.418Z,102281.50
2024-01-20T23:43:42.937Z,102264.94
2024-01-20T23:46:11.196Z,102266.13
2024-01-20T23:48:37.748Z,102268.44
2024-01-20T23:51:04.991Z,102268.00
2024-01-20T23:53:31.718Z,102267.94
2024-01-20T23:55:58.220Z,102269.47
2024-01-20T23:58:25.046Z,102262.69
